ěÝzenÝ letovÚho provozu ╚eskÚ republiky
Letiste: LKPD Aktualizace: 01.03.2021 18:26:23  UTC
 METAR LKPD 01.03. 18:30 ...
METAR LKPD 011830Z VRB02KT 6000 NSC 01/00 Q1035 NOSIG RMK WHT WHT=
 TAF LKPD 01.03. 17:00 ...
TAF LKPD 011700Z 0118/0218 VRB02KT 6000 NSC      BECMG 0120/0122 BKN010      TEMPO 0121/0210 2000 MIFG BR SCT002 BKN006      PROB30 TEMPO 0200/0208 0700 FZFG VV001      BECMG 0212/0215 8000 NSC=